sensor_id;sensor_type;location;lat;lon;timestamp;temperature;humidity
75357;HTU21D;63946;51.986;5.930;2023-04-15T06:20:54;9.65;62.43
75357;HTU21D;63946;51.986;5.930;2023-04-15T06:23:23;9.71;62.44
75357;HTU21D;63946;51.986;5.930;2023-04-15T06:25:54;9.75;62.53
75357;HTU21D;63946;51.986;5.930;2023-04-15T06:28:23;9.76;62.58
75357;HTU21D;63946;51.986;5.930;2023-04-15T06:30:52;9.71;62.76
75357;HTU21D;63946;51.986;5.930;2023-04-15T06:33:22;9.72;62.70
75357;HTU21D;63946;51.986;5.930;2023-04-15T06:35:50;9.71;62.75
75357;HTU21D;63946;51.986;5.930;2023-04-15T06:38:19;9.69;62.63
75357;HTU21D;63946;51.986;5.930;2023-04-15T06:40:48;9.67;62.50
75357;HTU21D;63946;51.986;5.930;2023-04-15T06:43:19;9.66;62.37
75357;HTU21D;63946;51.986;5.930;2023-04-15T06:45:48;9.64;62.08
75357;HTU21D;63946;51.986;5.930;2023-04-15T06:48:17;9.59;62.01
75357;HTU21D;63946;51.986;5.930;2023-04-15T06:50:48;9.60;62.04
75357;HTU21D;63946;51.986;5.930;2023-04-15T06:53:16;9.63;61.87
75357;HTU21D;63946;51.986;5.930;2023-04-15T06:55:49;9.56;62.00
75357;HTU21D;63946;51.986;5.930;2023-04-15T06:58:17;9.57;62.00
75357;HTU21D;63946;51.986;5.930;2023-04-15T07:00:48;9.56;62.00
75357;HTU21D;63946;51.986;5.930;2023-04-15T07:03:17;9.57;62.01
75357;HTU21D;63946;51.986;5.930;2023-04-15T07:05:46;9.59;61.99
75357;HTU21D;63946;51.986;5.930;2023-04-15T07:08:15;9.60;61.86
75357;HTU21D;63946;51.986;5.930;2023-04-15T07:10:47;9.61;61.80
75357;HTU21D;63946;51.986;5.930;2023-04-15T07:13:20;9.59;61.83
75357;HTU21D;63946;51.986;5.930;2023-04-15T07:15:49;9.53;61.91
75357;HTU21D;63946;51.986;5.930;2023-04-15T07:18:18;9.46;62.07
75357;HTU21D;63946;51.986;5.930;2023-04-15T07:20:47;9.46;62.12
75357;HTU21D;63946;51.986;5.930;2023-04-15T07:23:16;9.44;62.10
75357;HTU21D;63946;51.986;5.930;2023-04-15T07:25:48;9.41;62.15
75357;HTU21D;63946;51.986;5.930;2023-04-15T07:28:21;9.40;62.21
75357;HTU21D;63946;51.986;5.930;2023-04-15T07:30:49;9.46;62.15
75357;HTU21D;63946;51.986;5.930;2023-04-15T07:33:18;9.49;62.15
75357;HTU21D;63946;51.986;5.930;2023-04-15T07:35:47;9.50;62.28
75357;HTU21D;63946;51.986;5.930;2023-04-15T07:38:16;9.54;62.21
75357;HTU21D;63946;51.986;5.930;2023-04-15T07:40:48;9.61;62.16
75357;HTU21D;63946;51.986;5.930;2023-04-15T07:43:17;9.72;61.94
75357;HTU21D;63946;51.986;5.930;2023-04-15T07:45:48;9.78;61.81
75357;HTU21D;63946;51.986;5.930;2023-04-15T07:48:17;9.85;61.61
75357;HTU21D;63946;51.986;5.930;2023-04-15T07:50:46;9.98;61.39
75357;HTU21D;63946;51.986;5.930;2023-04-15T07:53:15;10.10;61.12
75357;HTU21D;63946;51.986;5.930;2023-04-15T07:55:45;10.22;60.90
75357;HTU21D;63946;51.986;5.930;2023-04-15T07:58:13;10.29;60.84
75357;HTU21D;63946;51.986;5.930;2023-04-15T08:00:42;10.42;60.56
75357;HTU21D;63946;51.986;5.930;2023-04-15T08:03:11;10.56;60.13
75357;HTU21D;63946;51.986;5.930;2023-04-15T08:05:43;10.70;59.77
75357;HTU21D;63946;51.986;5.930;2023-04-15T08:08:14;10.87;59.51
75357;HTU21D;63946;51.986;5.930;2023-04-15T08:10:43;10.90;58.89
75357;HTU21D;63946;51.986;5.930;2023-04-15T08:13:11;10.92;58.71
75357;HTU21D;63946;51.986;5.930;2023-04-15T08:15:40;10.87;58.52
75357;HTU21D;63946;51.986;5.930;2023-04-15T08:18:09;10.85;58.45
75357;HTU21D;63946;51.986;5.930;2023-04-15T08:20:38;10.97;58.26
75357;HTU21D;63946;51.986;5.930;2023-04-15T08:23:10;11.01;57.99
75357;HTU21D;63946;51.986;5.930;2023-04-15T08:25:39;11.05;57.88
75357;HTU21D;63946;51.986;5.930;2023-04-15T08:28:08;11.14;57.49
75357;HTU21D;63946;51.986;5.930;2023-04-15T08:30:39;11.12;57.11
75357;HTU21D;63946;51.986;5.930;2023-04-15T08:33:08;11.15;56.74
75357;HTU21D;63946;51.986;5.930;2023-04-15T08:35:39;11.15;56.67
75357;HTU21D;63946;51.986;5.930;2023-04-15T08:38:08;11.26;56.64
75357;HTU21D;63946;51.986;5.930;2023-04-15T08:40:43;11.37;56.46
75357;HTU21D;63946;51.986;5.930;2023-04-15T08:43:17;11.43;56.34
75357;HTU21D;63946;51.986;5.930;2023-04-15T08:45:52;11.42;56.17
75357;HTU21D;63946;51.986;5.930;2023-04-15T08:48:27;11.53;56.25
75357;HTU21D;63946;51.986;5.930;2023-04-15T08:50:56;11.59;56.17
75357;HTU21D;63946;51.986;5.930;2023-04-15T08:53:28;11.67;56.05
75357;HTU21D;63946;51.986;5.930;2023-04-15T08:56:03;11.72;55.81
75357;HTU21D;63946;51.986;5.930;2023-04-15T08:58:34;11.74;55.97
75357;HTU21D;63946;51.986;5.930;2023-04-15T09:01:03;11.68;55.72
75357;HTU21D;63946;51.986;5.930;2023-04-15T09:03:33;11.66;55.81
75357;HTU21D;63946;51.986;5.930;2023-04-15T09:06:07;11.70;55.71
75357;HTU21D;63946;51.986;5.930;2023-04-15T09:08:36;11.76;55.74
75357;HTU21D;63946;51.986;5.930;2023-04-15T09:11:05;11.86;55.56
75357;HTU21D;63946;51.986;5.930;2023-04-15T09:13:33;11.88;55.53
75357;HTU21D;63946;51.986;5.930;2023-04-15T09:16:04;12.00;55.78
75357;HTU21D;63946;51.986;5.930;2023-04-15T09:18:37;12.07;55.28
75357;HTU21D;63946;51.986;5.930;2023-04-15T09:21:12;12.11;54.93
75357;HTU21D;63946;51.986;5.930;2023-04-15T09:23:54;12.18;54.89
75357;HTU21D;63946;51.986;5.930;2023-04-15T09:26:32;12.30;54.84
75357;HTU21D;63946;51.986;5.930;2023-04-15T09:31:35;12.51;54.38
75357;HTU21D;63946;51.986;5.930;2023-04-15T09:34:05;12.44;54.78
75357;HTU21D;63946;51.986;5.930;2023-04-15T09:39:15;12.76;54.27
75357;HTU21D;63946;51.986;5.930;2023-04-15T09:41:44;12.90;53.84
75357;HTU21D;63946;51.986;5.930;2023-04-15T09:44:25;12.86;53.06
75357;HTU21D;63946;51.986;5.930;2023-04-15T09:46:54;12.77;53.49
75357;HTU21D;63946;51.986;5.930;2023-04-15T09:49:23;12.78;53.68
75357;HTU21D;63946;51.986;5.930;2023-04-15T09:51:57;12.88;53.51
75357;HTU21D;63946;51.986;5.930;2023-04-15T09:54:35;13.10;53.31
75357;HTU21D;63946;51.986;5.930;2023-04-15T09:57:07;13.33;52.93
75357;HTU21D;63946;51.986;5.930;2023-04-15T09:59:37;13.26;52.76
75357;HTU21D;63946;51.986;5.930;2023-04-15T10:02:07;13.36;52.91
75357;HTU21D;63946;51.986;5.930;2023-04-15T10:04:39;13.54;52.31
75357;HTU21D;63946;51.986;5.930;2023-04-15T10:07:09;13.62;52.10
75357;HTU21D;63946;51.986;5.930;2023-04-15T10:09:38;13.65;51.92
75357;HTU21D;63946;51.986;5.930;2023-04-15T10:12:07;13.61;51.85
75357;HTU21D;63946;51.986;5.930;2023-04-15T10:14:37;13.48;52.14
75357;HTU21D;63946;51.986;5.930;2023-04-15T10:17:10;13.62;51.98
75357;HTU21D;63946;51.986;5.930;2023-04-15T10:19:39;13.73;51.82
75357;HTU21D;63946;51.986;5.930;2023-04-15T10:22:09;13.74;51.72
75357;HTU21D;63946;51.986;5.930;2023-04-15T10:24:38;13.74;51.95
75357;HTU21D;63946;51.986;5.930;2023-04-15T10:27:12;13.64;51.65
75357;HTU21D;63946;51.986;5.930;2023-04-15T10:29:42;13.59;52.30
75357;HTU21D;63946;51.986;5.930;2023-04-15T10:32:11;13.69;51.85
75357;HTU21D;63946;51.986;5.930;2023-04-15T10:34:41;13.64;51.46
75357;HTU21D;63946;51.986;5.930;2023-04-15T10:37:10;13.60;51.89
75357;HTU21D;63946;51.986;5.930;2023-04-15T10:39:40;13.62;51.69
75357;HTU21D;63946;51.986;5.930;2023-04-15T10:42:15;13.91;51.27
75357;HTU21D;63946;51.986;5.930;2023-04-15T10:44:48;14.35;50.56
75357;HTU21D;63946;51.986;5.930;2023-04-15T10:47:20;14.66;49.74
75357;HTU21D;63946;51.986;5.930;2023-04-15T10:49:58;14.57;48.82
75357;HTU21D;63946;51.986;5.930;2023-04-15T10:52:28;14.30;49.54
75357;HTU21D;63946;51.986;5.930;2023-04-15T10:55:12;14.14;49.82
75357;HTU21D;63946;51.986;5.930;2023-04-15T10:57:43;14.06;49.76
75357;HTU21D;63946;51.986;5.930;2023-04-15T11:00:16;13.98;49.99
75357;HTU21D;63946;51.986;5.930;2023-04-15T11:02:46;13.99;50.02
75357;HTU21D;63946;51.986;5.930;2023-04-15T11:05:16;14.00;50.13
75357;HTU21D;63946;51.986;5.930;2023-04-15T11:12:49;14.36;49.98
75357;HTU21D;63946;51.986;5.930;2023-04-15T11:15:35;14.44;50.01
75357;HTU21D;63946;51.986;5.930;2023-04-15T11:18:20;14.74;49.79
75357;HTU21D;63946;51.986;5.930;2023-04-15T11:20:52;14.94;49.33
75357;HTU21D;63946;51.986;5.930;2023-04-15T11:23:33;14.99;48.75
75357;HTU21D;63946;51.986;5.930;2023-04-15T11:26:04;14.91;48.96
75357;HTU21D;63946;51.986;5.930;2023-04-15T11:28:34;14.84;48.75
75357;HTU21D;63946;51.986;5.930;2023-04-15T11:31:10;14.97;48.06
75357;HTU21D;63946;51.986;5.930;2023-04-15T11:34:03;14.98;47.56
75357;HTU21D;63946;51.986;5.930;2023-04-15T11:36:32;15.18;47.54
75357;HTU21D;63946;51.986;5.930;2023-04-15T11:39:06;15.49;47.28
75357;HTU21D;63946;51.986;5.930;2023-04-15T11:41:34;15.82;46.74
75357;HTU21D;63946;51.986;5.930;2023-04-15T11:44:17;15.60;45.55
75357;HTU21D;63946;51.986;5.930;2023-04-15T11:46:46;15.25;46.22
75357;HTU21D;63946;51.986;5.930;2023-04-15T11:49:28;15.21;46.24
75357;HTU21D;63946;51.986;5.930;2023-04-15T11:51:58;15.53;45.90
75357;HTU21D;63946;51.986;5.930;2023-04-15T11:54:28;15.67;45.60
75357;HTU21D;63946;51.986;5.930;2023-04-15T11:56:57;15.81;44.93
75357;HTU21D;63946;51.986;5.930;2023-04-15T11:59:41;15.58;44.67
75357;HTU21D;63946;51.986;5.930;2023-04-15T12:02:11;15.41;45.49
75357;HTU21D;63946;51.986;5.930;2023-04-15T12:04:40;15.27;45.71
75357;HTU21D;63946;51.986;5.930;2023-04-15T12:07:10;15.31;46.08
75357;HTU21D;63946;51.986;5.930;2023-04-15T12:09:42;15.43;45.93
75357;HTU21D;63946;51.986;5.930;2023-04-15T12:12:11;15.53;46.00
75357;HTU21D;63946;51.986;5.930;2023-04-15T12:14:43;15.53;45.12
75357;HTU21D;63946;51.986;5.930;2023-04-15T12:17:11;15.25;46.06
75357;HTU21D;63946;51.986;5.930;2023-04-15T12:19:43;15.44;45.83
75357;HTU21D;63946;51.986;5.930;2023-04-15T12:22:15;15.61;45.41
75357;HTU21D;63946;51.986;5.930;2023-04-15T12:24:45;15.76;45.17
75357;HTU21D;63946;51.986;5.930;2023-04-15T12:27:15;15.78;44.87
75357;HTU21D;63946;51.986;5.930;2023-04-15T12:29:46;15.82;45.26
75357;HTU21D;63946;51.986;5.930;2023-04-15T12:32:16;15.72;44.96
75357;HTU21D;63946;51.986;5.930;2023-04-15T12:34:50;15.41;44.80
75357;HTU21D;63946;51.986;5.930;2023-04-15T12:37:19;15.18;45.54
75357;HTU21D;63946;51.986;5.930;2023-04-15T12:39:48;15.38;45.57
75357;HTU21D;63946;51.986;5.930;2023-04-15T12:42:18;15.54;45.50
75357;HTU21D;63946;51.986;5.930;2023-04-15T12:44:47;15.62;44.87
75357;HTU21D;63946;51.986;5.930;2023-04-15T12:47:19;15.42;45.13
75357;HTU21D;63946;51.986;5.930;2023-04-15T12:49:48;15.34;45.96
75357;HTU21D;63946;51.986;5.930;2023-04-15T12:52:17;15.38;46.30
75357;HTU21D;63946;51.986;5.930;2023-04-15T12:54:47;15.55;46.27
75357;HTU21D;63946;51.986;5.930;2023-04-15T12:57:16;15.53;45.54
75357;HTU21D;63946;51.986;5.930;2023-04-15T12:59:45;15.46;45.76
75357;HTU21D;63946;51.986;5.930;2023-04-15T13:02:24;15.32;45.87
75357;HTU21D;63946;51.986;5.930;2023-04-15T13:05:14;15.21;46.11
75357;HTU21D;63946;51.986;5.930;2023-04-15T13:07:46;15.12;46.03
75357;HTU21D;63946;51.986;5.930;2023-04-15T13:10:15;15.02;46.57
75357;HTU21D;63946;51.986;5.930;2023-04-15T13:12:44;15.25;46.80
75357;HTU21D;63946;51.986;5.930;2023-04-15T13:15:14;15.39;45.70
75357;HTU21D;63946;51.986;5.930;2023-04-15T13:17:45;15.29;45.81
75357;HTU21D;63946;51.986;5.930;2023-04-15T13:20:14;15.27;45.98
75357;HTU21D;63946;51.986;5.930;2023-04-15T13:22:46;15.28;46.14
75357;HTU21D;63946;51.986;5.930;2023-04-15T13:25:15;15.15;46.44
75357;HTU21D;63946;51.986;5.930;2023-04-15T13:27:43;15.12;46.63
75357;HTU21D;63946;51.986;5.930;2023-04-15T13:30:12;15.18;46.60
75357;HTU21D;63946;51.986;5.930;2023-04-15T13:32:42;15.38;46.10
75357;HTU21D;63946;51.986;5.930;2023-04-15T13:35:10;15.41;45.86
75357;HTU21D;63946;51.986;5.930;2023-04-15T13:37:39;15.32;45.95
75357;HTU21D;63946;51.986;5.930;2023-04-15T13:40:12;15.16;46.41
75357;HTU21D;63946;51.986;5.930;2023-04-15T13:42:47;15.15;46.57
75357;HTU21D;63946;51.986;5.930;2023-04-15T13:45:16;15.09;46.36
75357;HTU21D;63946;51.986;5.930;2023-04-15T13:47:45;14.93;46.64
75357;HTU21D;63946;51.986;5.930;2023-04-15T13:50:14;14.85;46.60
75357;HTU21D;63946;51.986;5.930;2023-04-15T13:52:43;14.81;46.96
75357;HTU21D;63946;51.986;5.930;2023-04-15T13:55:14;14.80;47.34
75357;HTU21D;63946;51.986;5.930;2023-04-15T13:57:43;14.74;47.59
75357;HTU21D;63946;51.986;5.930;2023-04-15T14:00:12;14.74;47.70
75357;HTU21D;63946;51.986;5.930;2023-04-15T14:02:41;14.72;47.63
75357;HTU21D;63946;51.986;5.930;2023-04-15T14:05:10;14.63;47.70
75357;HTU21D;63946;51.986;5.930;2023-04-15T14:07:39;14.57;48.10
75357;HTU21D;63946;51.986;5.930;2023-04-15T14:10:08;14.52;48.08
75357;HTU21D;63946;51.986;5.930;2023-04-15T14:12:40;14.42;48.25
75357;HTU21D;63946;51.986;5.930;2023-04-15T14:15:09;14.34;48.37
75357;HTU21D;63946;51.986;5.930;2023-04-15T14:17:38;14.27;48.27
75357;HTU21D;63946;51.986;5.930;2023-04-15T14:20:08;14.07;48.58
75357;HTU21D;63946;51.986;5.930;2023-04-15T14:22:36;13.89;49.08
75357;HTU21D;63946;51.986;5.930;2023-04-15T14:25:06;13.80;49.33
75357;HTU21D;63946;51.986;5.930;2023-04-15T14:27:35;13.64;49.84
75357;HTU21D;63946;51.986;5.930;2023-04-15T14:30:07;13.61;50.03
75357;HTU21D;63946;51.986;5.930;2023-04-15T14:32:36;13.44;50.72
75357;HTU21D;63946;51.986;5.930;2023-04-15T14:35:06;13.27;51.08
75357;HTU21D;63946;51.986;5.930;2023-04-15T14:37:34;13.23;51.50
75357;HTU21D;63946;51.986;5.930;2023-04-15T14:40:03;13.25;51.73
75357;HTU21D;63946;51.986;5.930;2023-04-15T14:42:32;13.20;51.71
75357;HTU21D;63946;51.986;5.930;2023-04-15T14:45:01;13.15;51.94
75357;HTU21D;63946;51.986;5.930;2023-04-15T14:47:33;13.15;51.96
75357;HTU21D;63946;51.986;5.930;2023-04-15T14:50:02;13.14;52.07
75357;HTU21D;63946;51.986;5.930;2023-04-15T14:52:31;13.08;52.20
75357;HTU21D;63946;51.986;5.930;2023-04-15T14:55:07;13.07;52.43
75357;HTU21D;63946;51.986;5.930;2023-04-15T14:57:39;13.06;52.43
75357;HTU21D;63946;51.986;5.930;2023-04-15T15:00:09;13.09;52.47
75357;HTU21D;63946;51.986;5.930;2023-04-15T15:02:38;13.08;52.65
75357;HTU21D;63946;51.986;5.930;2023-04-15T15:05:09;13.01;52.79
75357;HTU21D;63946;51.986;5.930;2023-04-15T15:07:38;12.91;52.89
75357;HTU21D;63946;51.986;5.930;2023-04-15T15:10:11;12.84;53.33
75357;HTU21D;63946;51.986;5.930;2023-04-15T15:12:42;12.78;53.49
75357;HTU21D;63946;51.986;5.930;2023-04-15T15:15:11;12.63;53.72
75357;HTU21D;63946;51.986;5.930;2023-04-15T15:17:42;12.58;53.91
75357;HTU21D;63946;51.986;5.930;2023-04-15T15:20:11;12.57;53.84
75357;HTU21D;63946;51.986;5.930;2023-04-15T15:22:41;12.58;53.69
75357;HTU21D;63946;51.986;5.930;2023-04-15T15:25:10;12.58;53.61
75357;HTU21D;63946;51.986;5.930;2023-04-15T15:27:41;12.57;53.78
75357;HTU21D;63946;51.986;5.930;2023-04-15T15:30:10;12.64;53.60
75357;HTU21D;63946;51.986;5.930;2023-04-15T15:32:42;12.58;53.62
75357;HTU21D;63946;51.986;5.930;2023-04-15T15:35:11;12.56;53.82
75357;HTU21D;63946;51.986;5.930;2023-04-15T15:37:41;12.52;53.94
75357;HTU21D;63946;51.986;5.930;2023-04-15T15:40:13;12.45;54.24
75357;HTU21D;63946;51.986;5.930;2023-04-15T15:42:42;12.42;54.48
75357;HTU21D;63946;51.986;5.930;2023-04-15T15:45:12;12.31;54.79
75357;HTU21D;63946;51.986;5.930;2023-04-15T15:47:42;12.31;54.98
75357;HTU21D;63946;51.986;5.930;2023-04-15T15:50:12;12.40;55.17
75357;HTU21D;63946;51.986;5.930;2023-04-15T15:52:42;12.45;55.18
75357;HTU21D;63946;51.986;5.930;2023-04-15T15:55:11;12.43;55.31
75357;HTU21D;63946;51.986;5.930;2023-04-15T15:57:40;12.40;55.40
75357;HTU21D;63946;51.986;5.930;2023-04-15T16:00:09;12.38;55.47
75357;HTU21D;63946;51.986;5.930;2023-04-15T16:02:39;12.40;55.51
75357;HTU21D;63946;51.986;5.930;2023-04-15T16:05:10;12.44;55.37
75357;HTU21D;63946;51.986;5.930;2023-04-15T16:07:42;12.38;55.38
75357;HTU21D;63946;51.986;5.930;2023-04-15T16:10:11;12.35;55.44
75357;HTU21D;63946;51.986;5.930;2023-04-15T16:12:40;12.36;55.52
75357;HTU21D;63946;51.986;5.930;2023-04-15T16:15:09;12.44;55.39
75357;HTU21D;63946;51.986;5.930;2023-04-15T16:17:38;12.51;55.25
75357;HTU21D;63946;51.986;5.930;2023-04-15T16:20:07;12.49;55.35
75357;HTU21D;63946;51.986;5.930;2023-04-15T16:22:36;12.50;55.34
75357;HTU21D;63946;51.986;5.930;2023-04-15T16:25:06;12.48;55.52
75357;HTU21D;63946;51.986;5.930;2023-04-15T16:27:35;12.43;55.73
75357;HTU21D;63946;51.986;5.930;2023-04-15T16:30:05;12.28;56.21
75357;HTU21D;63946;51.986;5.930;2023-04-15T16:32:33;12.26;56.39
75357;HTU21D;63946;51.986;5.930;2023-04-15T16:35:02;12.19;56.54
75357;HTU21D;63946;51.986;5.930;2023-04-15T16:37:31;12.13;56.68
75357;HTU21D;63946;51.986;5.930;2023-04-15T16:40:04;12.02;56.93
75357;HTU21D;63946;51.986;5.930;2023-04-15T16:42:33;11.96;57.05
75357;HTU21D;63946;51.986;5.930;2023-04-15T16:45:02;11.89;57.29
75357;HTU21D;63946;51.986;5.930;2023-04-15T16:47:31;11.75;57.52
75357;HTU21D;63946;51.986;5.930;2023-04-15T16:50:02;11.63;57.77
75357;HTU21D;63946;51.986;5.930;2023-04-15T16:52:31;11.61;57.89
75357;HTU21D;63946;51.986;5.930;2023-04-15T16:55:03;11.60;58.00
75357;HTU21D;63946;51.986;5.930;2023-04-15T16:57:32;11.63;57.82
75357;HTU21D;63946;51.986;5.930;2023-04-15T17:00:01;11.60;57.89
75357;HTU21D;63946;51.986;5.930;2023-04-15T17:02:30;11.59;57.99
75357;HTU21D;63946;51.986;5.930;2023-04-15T17:04:59;11.60;58.00
75357;HTU21D;63946;51.986;5.930;2023-04-15T17:07:28;11.61;58.06
75357;HTU21D;63946;51.986;5.930;2023-04-15T17:09:58;11.57;58.32
75357;HTU21D;63946;51.986;5.930;2023-04-15T17:12:28;11.49;58.73
75357;HTU21D;63946;51.986;5.930;2023-04-15T17:14:59;11.44;58.90
75357;HTU21D;63946;51.986;5.930;2023-04-15T17:17:28;11.37;59.21
75357;HTU21D;63946;51.986;5.930;2023-04-15T17:19:59;11.30;59.40
75357;HTU21D;63946;51.986;5.930;2023-04-15T17:22:32;11.31;59.38
75357;HTU21D;63946;51.986;5.930;2023-04-15T17:25:03;11.28;59.46
75357;HTU21D;63946;51.986;5.930;2023-04-15T17:27:35;11.23;59.61
75357;HTU21D;63946;51.986;5.930;2023-04-15T17:30:05;11.23;59.70
75357;HTU21D;63946;51.986;5.930;2023-04-15T17:32:34;11.22;59.72
75357;HTU21D;63946;51.986;5.930;2023-04-15T17:35:04;11.15;59.89
75357;HTU21D;63946;51.986;5.930;2023-04-15T17:37:33;11.07;60.15
75357;HTU21D;63946;51.986;5.930;2023-04-15T17:40:02;11.05;60.27
75357;HTU21D;63946;51.986;5.930;2023-04-15T17:42:32;11.09;60.25
75357;HTU21D;63946;51.986;5.930;2023-04-15T17:45:00;11.03;60.28
75357;HTU21D;63946;51.986;5.930;2023-04-15T17:47:29;11.07;60.28
75357;HTU21D;63946;51.986;5.930;2023-04-15T17:49:58;11.04;60.34
75357;HTU21D;63946;51.986;5.930;2023-04-15T17:52:26;10.94;60.64
75357;HTU21D;63946;51.986;5.930;2023-04-15T17:54:57;10.89;60.80
75357;HTU21D;63946;51.986;5.930;2023-04-15T17:57:27;10.86;60.95
75357;HTU21D;63946;51.986;5.930;2023-04-15T17:59:56;10.84;61.05
75357;HTU21D;63946;51.986;5.930;2023-04-15T18:02:25;10.81;61.18
75357;HTU21D;63946;51.986;5.930;2023-04-15T18:04:54;10.74;61.41
75357;HTU21D;63946;51.986;5.930;2023-04-15T18:07:23;10.72;61.47
75357;HTU21D;63946;51.986;5.930;2023-04-15T18:09:51;10.77;61.44
75357;HTU21D;63946;51.986;5.930;2023-04-15T18:12:20;10.73;61.54
75357;HTU21D;63946;51.986;5.930;2023-04-15T18:14:52;10.72;61.68
75357;HTU21D;63946;51.986;5.930;2023-04-15T18:17:21;10.65;61.83
75357;HTU21D;63946;51.986;5.930;2023-04-15T18:19:49;10.63;61.85
75357;HTU21D;63946;51.986;5.930;2023-04-15T18:22:19;10.63;61.87
75357;HTU21D;63946;51.986;5.930;2023-04-15T18:24:47;10.63;61.79
75357;HTU21D;63946;51.986;5.930;2023-04-15T18:27:17;10.60;61.89
75357;HTU21D;63946;51.986;5.930;2023-04-15T18:29:46;10.59;62.02
75357;HTU21D;63946;51.986;5.930;2023-04-15T18:32:14;10.60;62.05
75357;HTU21D;63946;51.986;5.930;2023-04-15T18:34:43;10.55;62.24
75357;HTU21D;63946;51.986;5.930;2023-04-15T18:37:12;10.53;62.28
75357;HTU21D;63946;51.986;5.930;2023-04-15T18:39:48;10.46;62.49
75357;HTU21D;63946;51.986;5.930;2023-04-15T18:42:16;10.45;62.53
75357;HTU21D;63946;51.986;5.930;2023-04-15T18:44:45;10.45;62.66
75357;HTU21D;63946;51.986;5.930;2023-04-15T18:47:14;10.41;62.82
75357;HTU21D;63946;51.986;5.930;2023-04-15T18:49:43;10.39;62.93
75357;HTU21D;63946;51.986;5.930;2023-04-15T18:52:12;10.43;62.86
75357;HTU21D;63946;51.986;5.930;2023-04-15T18:54:40;10.39;62.97
75357;HTU21D;63946;51.986;5.930;2023-04-15T18:57:09;10.36;63.10
75357;HTU21D;63946;51.986;5.930;2023-04-15T18:59:41;10.35;63.25
75357;HTU21D;63946;51.986;5.930;2023-04-15T19:02:10;10.36;63.27
75357;HTU21D;63946;51.986;5.930;2023-04-15T19:04:42;10.33;63.37
75357;HTU21D;63946;51.986;5.930;2023-04-15T19:07:10;10.29;63.48
75357;HTU21D;63946;51.986;5.930;2023-04-15T19:09:39;10.27;63.68
75357;HTU21D;63946;51.986;5.930;2023-04-15T19:12:08;10.26;63.75
75357;HTU21D;63946;51.986;5.930;2023-04-15T19:14:37;10.26;63.82
75357;HTU21D;63946;51.986;5.930;2023-04-15T19:17:08;10.28;63.82
75357;HTU21D;63946;51.986;5.930;2023-04-15T19:19:37;10.25;64.01
75357;HTU21D;63946;51.986;5.930;2023-04-15T19:22:07;10.23;64.15
75357;HTU21D;63946;51.986;5.930;2023-04-15T19:24:36;10.22;64.19
75357;HTU21D;63946;51.986;5.930;2023-04-15T19:27:04;10.20;64.28
75357;HTU21D;63946;51.986;5.930;2023-04-15T19:29:33;10.16;64.37
75357;HTU21D;63946;51.986;5.930;2023-04-15T19:32:02;10.14;64.49
75357;HTU21D;63946;51.986;5.930;2023-04-15T19:34:31;10.18;64.52
75357;HTU21D;63946;51.986;5.930;2023-04-15T19:37:00;10.20;64.53
75357;HTU21D;63946;51.986;5.930;2023-04-15T19:39:29;10.18;64.56
75357;HTU21D;63946;51.986;5.930;2023-04-15T19:41:58;10.19;64.67
75357;HTU21D;63946;51.986;5.930;2023-04-15T19:44:27;10.18;64.79
75357;HTU21D;63946;51.986;5.930;2023-04-15T19:46:56;10.18;64.82
75357;HTU21D;63946;51.986;5.930;2023-04-15T19:49:25;10.19;64.83
75357;HTU21D;63946;51.986;5.930;2023-04-15T19:51:53;10.18;65.01
75357;HTU21D;63946;51.986;5.930;2023-04-15T19:54:23;10.13;65.24
75357;HTU21D;63946;51.986;5.930;2023-04-15T19:56:52;10.09;65.50
75357;HTU21D;63946;51.986;5.930;2023-04-15T19:59:26;10.08;65.69
75357;HTU21D;63946;51.986;5.930;2023-04-15T20:01:55;10.08;65.72
75357;HTU21D;63946;51.986;5.930;2023-04-15T20:04:24;10.07;65.73
75357;HTU21D;63946;51.986;5.930;2023-04-15T20:06:55;10.09;65.72
75357;HTU21D;63946;51.986;5.930;2023-04-15T20:09:24;10.05;65.91
75357;HTU21D;63946;51.986;5.930;2023-04-15T20:11:53;10.03;65.98
75357;HTU21D;63946;51.986;5.930;2023-04-15T20:14:22;9.98;66.20
75357;HTU21D;63946;51.986;5.930;2023-04-15T20:16:51;9.98;66.27
75357;HTU21D;63946;51.986;5.930;2023-04-15T20:19:20;9.97;66.30
75357;HTU21D;63946;51.986;5.930;2023-04-15T20:21:49;9.98;66.24
75357;HTU21D;63946;51.986;5.930;2023-04-15T20:24:18;9.99;66.24
75357;HTU21D;63946;51.986;5.930;2023-04-15T20:26:48;9.97;66.36
75357;HTU21D;63946;51.986;5.930;2023-04-15T20:29:19;9.93;66.53
75357;HTU21D;63946;51.986;5.930;2023-04-15T20:31:48;9.91;66.64
75357;HTU21D;63946;51.986;5.930;2023-04-15T20:34:17;9.90;66.75
75357;HTU21D;63946;51.986;5.930;2023-04-15T20:36:46;9.91;66.85
